sensor_id;sensor_type;location;lat;lon;timestamp;pressure;altitude;pressure_sealevel;temperature;humidity
62402;BME280;48440;51.224;22.506;2022-09-23T00:00:35;99531.22;;;10.23;74.52
62402;BME280;48440;51.224;22.506;2022-09-23T00:03:00;99523.09;;;10.23;74.50
62402;BME280;48440;51.224;22.506;2022-09-23T00:05:27;99519.19;;;10.18;74.66
62402;BME280;48440;51.224;22.506;2022-09-23T00:07:53;99527.56;;;10.17;74.89
62402;BME280;48440;51.224;22.506;2022-09-23T00:10:22;99522.63;;;10.14;74.84
62402;BME280;48440;51.224;22.506;2022-09-23T00:12:49;99520.50;;;10.16;74.60
62402;BME280;48440;51.224;22.506;2022-09-23T00:15:15;99507.72;;;10.11;74.69
62402;BME280;48440;51.224;22.506;2022-09-23T00:17:41;99513.38;;;10.10;74.57
62402;BME280;48440;51.224;22.506;2022-09-23T00:20:07;99504.91;;;10.06;74.40
62402;BME280;48440;51.224;22.506;2022-09-23T00:22:36;99511.16;;;10.07;75.04
62402;BME280;48440;51.224;22.506;2022-09-23T00:25:04;99513.53;;;10.03;75.11
62402;BME280;48440;51.224;22.506;2022-09-23T00:27:31;99515.56;;;9.96;75.23
62402;BME280;48440;51.224;22.506;2022-09-23T00:29:58;99510.97;;;9.97;74.99
62402;BME280;48440;51.224;22.506;2022-09-23T00:32:25;99519.09;;;9.97;74.87
62402;BME280;48440;51.224;22.506;2022-09-23T00:34:51;99513.69;;;9.97;74.68
62402;BME280;48440;51.224;22.506;2022-09-23T00:37:17;99511.47;;;9.94;74.80
62402;BME280;48440;51.224;22.506;2022-09-23T00:39:43;99518.78;;;9.93;75.04
62402;BME280;48440;51.224;22.506;2022-09-23T00:42:16;99513.09;;;9.95;75.11
62402;BME280;48440;51.224;22.506;2022-09-23T00:44:50;99509.22;;;9.91;74.81
62402;BME280;48440;51.224;22.506;2022-09-23T00:49:50;99506.53;;;9.91;75.09
62402;BME280;48440;51.224;22.506;2022-09-23T00:52:19;99511.38;;;9.88;75.17
62402;BME280;48440;51.224;22.506;2022-09-23T00:54:47;99503.50;;;9.87;74.86
62402;BME280;48440;51.224;22.506;2022-09-23T00:57:16;99511.88;;;9.85;74.61
62402;BME280;48440;51.224;22.506;2022-09-23T00:59:44;99508.00;;;9.81;74.96
62402;BME280;48440;51.224;22.506;2022-09-23T01:02:12;99502.50;;;9.76;75.03
62402;BME280;48440;51.224;22.506;2022-09-23T01:04:38;99503.66;;;9.80;74.95
62402;BME280;48440;51.224;22.506;2022-09-23T01:07:11;99507.44;;;9.79;74.70
62402;BME280;48440;51.224;22.506;2022-09-23T01:09:38;99503.81;;;9.74;75.05
62402;BME280;48440;51.224;22.506;2022-09-23T01:15:09;99506.28;;;9.75;75.19
62402;BME280;48440;51.224;22.506;2022-09-23T01:17:46;99501.09;;;9.74;75.28
62402;BME280;48440;51.224;22.506;2022-09-23T01:43:36;99500.59;;;9.60;74.60
62402;BME280;48440;51.224;22.506;2022-09-23T01:46:09;99497.31;;;9.58;75.13
62402;BME280;48440;51.224;22.506;2022-09-23T01:48:39;99508.63;;;9.55;75.06
62402;BME280;48440;51.224;22.506;2022-09-23T01:51:12;99508.28;;;9.51;74.97
62402;BME280;48440;51.224;22.506;2022-09-23T01:56:16;99507.34;;;9.46;75.16
62402;BME280;48440;51.224;22.506;2022-09-23T01:58:49;99508.41;;;9.45;75.03
62402;BME280;48440;51.224;22.506;2022-09-23T02:01:27;99507.25;;;9.41;74.80
62402;BME280;48440;51.224;22.506;2022-09-23T02:04:01;99507.97;;;9.36;74.99
62402;BME280;48440;51.224;22.506;2022-09-23T02:06:41;99507.50;;;9.39;75.22
62402;BME280;48440;51.224;22.506;2022-09-23T02:09:24;99503.38;;;9.37;74.91
62402;BME280;48440;51.224;22.506;2022-09-23T02:11:58;99508.78;;;9.37;74.76
62402;BME280;48440;51.224;22.506;2022-09-23T02:14:49;99507.16;;;9.36;74.88
62402;BME280;48440;51.224;22.506;2022-09-23T02:17:40;99504.13;;;9.32;75.04
62402;BME280;48440;51.224;22.506;2022-09-23T02:20:12;99507.41;;;9.34;75.20
62402;BME280;48440;51.224;22.506;2022-09-23T02:23:04;99505.44;;;9.30;74.70
62402;BME280;48440;51.224;22.506;2022-09-23T02:31:23;99496.84;;;9.21;74.97
62402;BME280;48440;51.224;22.506;2022-09-23T02:33:56;99498.03;;;9.25;74.86
62402;BME280;48440;51.224;22.506;2022-09-23T02:36:29;99500.72;;;9.25;74.79
62402;BME280;48440;51.224;22.506;2022-09-23T02:39:02;99496.72;;;9.28;75.13
62402;BME280;48440;51.224;22.506;2022-09-23T02:41:35;99500.25;;;9.28;74.66
62402;BME280;48440;51.224;22.506;2022-09-23T02:44:15;99497.78;;;9.27;74.89
62402;BME280;48440;51.224;22.506;2022-09-23T02:46:43;99500.97;;;9.24;74.70
62402;BME280;48440;51.224;22.506;2022-09-23T02:49:11;99490.03;;;9.18;74.64
62402;BME280;48440;51.224;22.506;2022-09-23T02:51:39;99495.44;;;9.18;74.65
62402;BME280;48440;51.224;22.506;2022-09-23T02:54:07;99491.00;;;9.12;74.72
62402;BME280;48440;51.224;22.506;2022-09-23T02:56:35;99495.69;;;9.17;75.16
62402;BME280;48440;51.224;22.506;2022-09-23T02:59:02;99490.28;;;9.17;75.38
62402;BME280;48440;51.224;22.506;2022-09-23T03:04:50;99497.56;;;9.16;75.23
62402;BME280;48440;51.224;22.506;2022-09-23T03:10:29;99491.09;;;9.17;75.23
62402;BME280;48440;51.224;22.506;2022-09-23T03:15:52;99503.81;;;9.17;75.16
62402;BME280;48440;51.224;22.506;2022-09-23T03:18:22;99495.09;;;9.15;75.17
62402;BME280;48440;51.224;22.506;2022-09-23T03:23:58;99494.16;;;9.21;75.25
62402;BME280;48440;51.224;22.506;2022-09-23T03:26:30;99494.97;;;9.22;75.49
62402;BME280;48440;51.224;22.506;2022-09-23T03:29:01;99491.09;;;9.17;75.30
62402;BME280;48440;51.224;22.506;2022-09-23T03:31:28;99496.16;;;9.14;75.53
62402;BME280;48440;51.224;22.506;2022-09-23T03:33:57;99498.88;;;9.14;75.30
62402;BME280;48440;51.224;22.506;2022-09-23T03:36:33;99496.91;;;9.09;75.71
62402;BME280;48440;51.224;22.506;2022-09-23T03:39:50;99493.13;;;9.10;75.83
62402;BME280;48440;51.224;22.506;2022-09-23T03:42:25;99494.28;;;9.14;75.78
62402;BME280;48440;51.224;22.506;2022-09-23T03:44:53;99495.34;;;9.13;75.55
62402;BME280;48440;51.224;22.506;2022-09-23T03:47:25;99494.69;;;9.06;75.84
62402;BME280;48440;51.224;22.506;2022-09-23T03:49:52;99491.97;;;9.06;76.18
62402;BME280;48440;51.224;22.506;2022-09-23T03:52:20;99492.22;;;9.05;75.94
62402;BME280;48440;51.224;22.506;2022-09-23T03:54:46;99493.28;;;9.04;76.27
62402;BME280;48440;51.224;22.506;2022-09-23T03:57:12;99489.16;;;9.01;76.57
62402;BME280;48440;51.224;22.506;2022-09-23T03:59:38;99487.38;;;9.07;76.07
62402;BME280;48440;51.224;22.506;2022-09-23T04:02:04;99495.81;;;9.10;76.12
62402;BME280;48440;51.224;22.506;2022-09-23T04:04:35;99486.56;;;9.06;76.33
62402;BME280;48440;51.224;22.506;2022-09-23T04:07:01;99489.34;;;9.11;76.25
62402;BME280;48440;51.224;22.506;2022-09-23T04:09:27;99483.13;;;9.11;76.03
62402;BME280;48440;51.224;22.506;2022-09-23T04:11:52;99482.03;;;9.12;76.31
62402;BME280;48440;51.224;22.506;2022-09-23T04:14:19;99480.69;;;9.09;75.89
62402;BME280;48440;51.224;22.506;2022-09-23T04:16:46;99482.28;;;9.10;76.50
62402;BME280;48440;51.224;22.506;2022-09-23T04:19:12;99477.97;;;9.09;76.58
62402;BME280;48440;51.224;22.506;2022-09-23T04:21:39;99484.44;;;9.08;76.65
62402;BME280;48440;51.224;22.506;2022-09-23T04:24:05;99488.78;;;9.09;76.51
62402;BME280;48440;51.224;22.506;2022-09-23T04:26:31;99491.00;;;9.12;76.47
62402;BME280;48440;51.224;22.506;2022-09-23T04:28:56;99489.59;;;9.10;76.73
62402;BME280;48440;51.224;22.506;2022-09-23T04:31:22;99489.59;;;9.10;76.46
62402;BME280;48440;51.224;22.506;2022-09-23T04:33:49;99491.50;;;9.09;76.35
62402;BME280;48440;51.224;22.506;2022-09-23T04:36:14;99494.44;;;9.08;76.34
62402;BME280;48440;51.224;22.506;2022-09-23T04:38:45;99496.56;;;9.06;76.82
62402;BME280;48440;51.224;22.506;2022-09-23T04:41:12;99490.91;;;9.07;76.39
62402;BME280;48440;51.224;22.506;2022-09-23T04:43:38;99486.31;;;9.08;76.53
62402;BME280;48440;51.224;22.506;2022-09-23T04:46:06;99492.22;;;9.05;76.54
62402;BME280;48440;51.224;22.506;2022-09-23T04:48:32;99489.50;;;9.05;76.52
62402;BME280;48440;51.224;22.506;2022-09-23T04:51:03;99487.63;;;9.05;76.63
62402;BME280;48440;51.224;22.506;2022-09-23T04:53:29;99490.09;;;9.07;77.14
62402;BME280;48440;51.224;22.506;2022-09-23T04:56:06;99488.22;;;9.07;76.86
62402;BME280;48440;51.224;22.506;2022-09-23T04:58:33;99491.22;;;9.11;77.25
62402;BME280;48440;51.224;22.506;2022-09-23T05:01:10;99491.81;;;9.13;76.93
62402;BME280;48440;51.224;22.506;2022-09-23T05:03:36;99491.56;;;9.14;76.85
62402;BME280;48440;51.224;22.506;2022-09-23T05:06:02;99492.75;;;9.18;76.75
62402;BME280;48440;51.224;22.506;2022-09-23T05:08:28;99494.50;;;9.25;76.60
62402;BME280;48440;51.224;22.506;2022-09-23T05:10:57;99490.72;;;9.26;76.39
62402;BME280;48440;51.224;22.506;2022-09-23T05:13:23;99477.44;;;9.24;76.50
62402;BME280;48440;51.224;22.506;2022-09-23T05:15:56;99482.84;;;9.24;76.86
62402;BME280;48440;51.224;22.506;2022-09-23T05:18:21;99488.69;;;9.33;75.93
62402;BME280;48440;51.224;22.506;2022-09-23T05:20:54;99498.22;;;9.35;76.68
62402;BME280;48440;51.224;22.506;2022-09-23T05:23:24;99491.00;;;9.41;76.62
62402;BME280;48440;51.224;22.506;2022-09-23T05:26:01;99500.28;;;9.45;76.39
62402;BME280;48440;51.224;22.506;2022-09-23T05:28:28;99500.88;;;9.47;76.75
62402;BME280;48440;51.224;22.506;2022-09-23T05:31:12;99490.47;;;9.56;76.20
62402;BME280;48440;51.224;22.506;2022-09-23T05:33:44;99491.06;;;9.58;76.41
62402;BME280;48440;51.224;22.506;2022-09-23T05:36:19;99493.53;;;9.59;75.81
62402;BME280;48440;51.224;22.506;2022-09-23T05:38:45;99500.31;;;9.62;76.20
62402;BME280;48440;51.224;22.506;2022-09-23T05:41:13;99495.25;;;9.65;76.01
62402;BME280;48440;51.224;22.506;2022-09-23T05:43:39;99499.09;;;9.69;75.64
62402;BME280;48440;51.224;22.506;2022-09-23T05:46:14;99502.41;;;9.71;75.50
62402;BME280;48440;51.224;22.506;2022-09-23T05:48:40;99501.91;;;9.74;75.44
62402;BME280;48440;51.224;22.506;2022-09-23T05:51:09;99506.84;;;9.77;75.65
62402;BME280;48440;51.224;22.506;2022-09-23T05:53:37;99502.25;;;9.78;75.49
62402;BME280;48440;51.224;22.506;2022-09-23T05:56:04;99513.34;;;9.76;75.86
62402;BME280;48440;51.224;22.506;2022-09-23T05:58:30;99506.59;;;9.79;75.26
62402;BME280;48440;51.224;22.506;2022-09-23T06:00:56;99508.41;;;9.90;75.52
62402;BME280;48440;51.224;22.506;2022-09-23T06:03:23;99507.69;;;9.95;75.75
62402;BME280;48440;51.224;22.506;2022-09-23T06:05:55;99510.63;;;9.93;75.12
62402;BME280;48440;51.224;22.506;2022-09-23T06:08:21;99516.41;;;9.97;75.69
62402;BME280;48440;51.224;22.506;2022-09-23T06:10:48;99514.25;;;9.99;75.41
62402;BME280;48440;51.224;22.506;2022-09-23T06:13:13;99522.41;;;9.99;75.04
62402;BME280;48440;51.224;22.506;2022-09-23T06:15:40;99518.28;;;9.96;74.91
62402;BME280;48440;51.224;22.506;2022-09-23T06:18:08;99515.13;;;9.87;74.93
62402;BME280;48440;51.224;22.506;2022-09-23T06:20:33;99518.59;;;9.83;75.10
62402;BME280;48440;51.224;22.506;2022-09-23T06:23:07;99513.69;;;9.80;75.07
62402;BME280;48440;51.224;22.506;2022-09-23T06:25:33;99518.19;;;9.74;75.68
62402;BME280;48440;51.224;22.506;2022-09-23T06:27:59;99518.66;;;9.71;75.55
62402;BME280;48440;51.224;22.506;2022-09-23T06:30:25;99513.56;;;9.75;75.19
62402;BME280;48440;51.224;22.506;2022-09-23T06:32:53;99520.53;;;9.71;75.47
62402;BME280;48440;51.224;22.506;2022-09-23T06:35:20;99525.16;;;9.70;75.47
62402;BME280;48440;51.224;22.506;2022-09-23T06:37:47;99526.63;;;9.61;76.14
62402;BME280;48440;51.224;22.506;2022-09-23T06:40:12;99525.28;;;9.64;76.21
62402;BME280;48440;51.224;22.506;2022-09-23T06:42:42;99531.03;;;9.67;76.12
62402;BME280;48440;51.224;22.506;2022-09-23T06:45:09;99524.09;;;9.71;76.07
62402;BME280;48440;51.224;22.506;2022-09-23T06:47:37;99519.81;;;9.75;75.97
62402;BME280;48440;51.224;22.506;2022-09-23T06:50:04;99526.97;;;9.81;75.72
62402;BME280;48440;51.224;22.506;2022-09-23T06:52:30;99524.84;;;9.83;75.41
62402;BME280;48440;51.224;22.506;2022-09-23T06:54:56;99527.22;;;9.80;75.77
62402;BME280;48440;51.224;22.506;2022-09-23T06:57:21;99531.09;;;9.84;75.71
62402;BME280;48440;51.224;22.506;2022-09-23T06:59:47;99532.41;;;9.81;75.69
62402;BME280;48440;51.224;22.506;2022-09-23T07:02:13;99535.69;;;9.83;75.65
62402;BME280;48440;51.224;22.506;2022-09-23T07:04:39;99532.41;;;9.81;75.38
62402;BME280;48440;51.224;22.506;2022-09-23T07:07:04;99536.19;;;9.80;75.88
62402;BME280;48440;51.224;22.506;2022-09-23T07:09:30;99523.88;;;10.06;76.26
62402;BME280;48440;51.224;22.506;2022-09-23T07:11:55;99528.25;;;10.24;75.91
62402;BME280;48440;51.224;22.506;2022-09-23T07:14:21;99526.94;;;10.43;74.74
62402;BME280;48440;51.224;22.506;2022-09-23T07:16:50;99534.63;;;10.68;74.77
62402;BME280;48440;51.224;22.506;2022-09-23T07:19:17;99533.41;;;10.98;73.72
62402;BME280;48440;51.224;22.506;2022-09-23T07:21:43;99524.72;;;11.44;72.83
62402;BME280;48440;51.224;22.506;2022-09-23T07:24:08;99530.34;;;11.60;72.00
62402;BME280;48440;51.224;22.506;2022-09-23T07:26:34;99535.19;;;11.79;70.94
62402;BME280;48440;51.224;22.506;2022-09-23T07:29:00;99538.22;;;11.83;70.53
62402;BME280;48440;51.224;22.506;2022-09-23T07:31:33;99539.38;;;11.65;70.02
62402;BME280;48440;51.224;22.506;2022-09-23T07:34:00;99537.63;;;11.54;70.29
62402;BME280;48440;51.224;22.506;2022-09-23T07:36:27;99541.09;;;11.49;69.91
62402;BME280;48440;51.224;22.506;2022-09-23T07:38:55;99543.25;;;11.47;70.54
62402;BME280;48440;51.224;22.506;2022-09-23T07:41:25;99544.88;;;11.48;70.90
62402;BME280;48440;51.224;22.506;2022-09-23T07:43:53;99535.22;;;11.57;70.58
62402;BME280;48440;51.224;22.506;2022-09-23T07:46:24;99541.88;;;11.72;70.66
62402;BME280;48440;51.224;22.506;2022-09-23T07:48:50;99544.56;;;11.67;70.19
62402;BME280;48440;51.224;22.506;2022-09-23T07:51:18;99540.09;;;11.55;70.19
62402;BME280;48440;51.224;22.506;2022-09-23T07:53:49;99543.25;;;11.47;70.34
62402;BME280;48440;51.224;22.506;2022-09-23T07:56:16;99539.97;;;11.45;71.13
62402;BME280;48440;51.224;22.506;2022-09-23T07:58:44;99544.94;;;11.53;71.00
62402;BME280;48440;51.224;22.506;2022-09-23T08:01:10;99538.22;;;11.83;71.14
62402;BME280;48440;51.224;22.506;2022-09-23T08:03:36;99536.09;;;12.17;71.79
62402;BME280;48440;51.224;22.506;2022-09-23T08:06:20;99524.28;;;13.33;69.17
62402;BME280;48440;51.224;22.506;2022-09-23T08:08:46;99517.63;;;14.21;67.13
62402;BME280;48440;51.224;22.506;2022-09-23T08:11:12;99524.94;;;14.82;64.84
62402;BME280;48440;51.224;22.506;2022-09-23T08:13:39;99522.53;;;15.45;61.51
62402;BME280;48440;51.224;22.506;2022-09-23T08:16:04;99521.41;;;16.00;61.62
62402;BME280;48440;51.224;22.506;2022-09-23T08:18:31;99523.25;;;16.39;59.38
62402;BME280;48440;51.224;22.506;2022-09-23T08:20:57;99522.50;;;16.33;58.79
62402;BME280;48440;51.224;22.506;2022-09-23T08:23:22;99515.16;;;15.89;58.08
62402;BME280;48440;51.224;22.506;2022-09-23T08:25:48;99515.69;;;15.42;58.46
62402;BME280;48440;51.224;22.506;2022-09-23T08:28:14;99520.91;;;15.34;60.02
62402;BME280;48440;51.224;22.506;2022-09-23T08:30:47;99509.63;;;14.86;60.59
62402;BME280;48440;51.224;22.506;2022-09-23T08:33:13;99523.91;;;14.17;61.22
62402;BME280;48440;51.224;22.506;2022-09-23T08:35:39;99522.22;;;13.75;62.34
62402;BME280;48440;51.224;22.506;2022-09-23T08:38:05;99521.66;;;13.68;62.47
62402;BME280;48440;51.224;22.506;2022-09-23T08:40:36;99526.03;;;13.69;62.39
62402;BME280;48440;51.224;22.506;2022-09-23T08:43:18;99524.06;;;13.54;63.30
62402;BME280;48440;51.224;22.506;2022-09-23T08:45:46;99515.25;;;13.27;63.32
62402;BME280;48440;51.224;22.506;2022-09-23T08:48:14;99519.47;;;13.03;64.07
62402;BME280;48440;51.224;22.506;2022-09-23T08:50:44;99512.63;;;12.90;64.19
62402;BME280;48440;51.224;22.506;2022-09-23T08:53:24;99517.28;;;12.95;64.71
62402;BME280;48440;51.224;22.506;2022-09-23T08:55:53;99517.16;;;13.16;63.77
62402;BME280;48440;51.224;22.506;2022-09-23T09:01:12;99521.84;;;13.36;65.69
62402;BME280;48440;51.224;22.506;2022-09-23T09:06:23;99506.44;;;13.98;62.41
62402;BME280;48440;51.224;22.506;2022-09-23T09:08:55;99510.25;;;14.12;61.60
62402;BME280;48440;51.224;22.506;2022-09-23T09:11:25;99507.16;;;14.89;60.70
62402;BME280;48440;51.224;22.506;2022-09-23T09:14:17;99508.38;;;15.33;59.44
62402;BME280;48440;51.224;22.506;2022-09-23T09:19:52;99501.75;;;14.74;59.19
62402;BME280;48440;51.224;22.506;2022-09-23T09:22:24;99501.72;;;14.84;59.30
62402;BME280;48440;51.224;22.506;2022-09-23T09:25:02;99502.94;;;15.27;59.54
62402;BME280;48440;51.224;22.506;2022-09-23T09:27:30;99502.00;;;15.57;57.73
62402;BME280;48440;51.224;22.506;2022-09-23T09:29:59;99495.94;;;15.60;57.66
62402;BME280;48440;51.224;22.506;2022-09-23T09:32:40;99501.13;;;15.62;56.59
62402;BME280;48440;51.224;22.506;2022-09-23T09:35:32;99502.84;;;15.43;55.67
62402;BME280;48440;51.224;22.506;2022-09-23T09:38:01;99501.75;;;15.39;55.65
62402;BME280;48440;51.224;22.506;2022-09-23T09:40:28;99495.41;;;15.98;56.12
62402;BME280;48440;51.224;22.506;2022-09-23T09:42:54;99488.72;;;16.43;54.75
62402;BME280;48440;51.224;22.506;2022-09-23T09:48:29;99493.72;;;16.36;54.03
62402;BME280;48440;51.224;22.506;2022-09-23T09:51:18;99498.84;;;16.13;53.48
62402;BME280;48440;51.224;22.506;2022-09-23T09:53:45;99491.03;;;15.97;54.51
62402;BME280;48440;51.224;22.506;2022-09-23T09:56:15;99485.72;;;15.76;53.66
62402;BME280;48440;51.224;22.506;2022-09-23T10:01:30;99473.72;;;15.67;54.39
62402;BME280;48440;51.224;22.506;2022-09-23T10:04:02;99469.44;;;15.51;54.74
62402;BME280;48440;51.224;22.506;2022-09-23T10:06:31;99465.44;;;15.82;55.78
62402;BME280;48440;51.224;22.506;2022-09-23T10:11:31;99454.28;;;17.32;53.26
62402;BME280;48440;51.224;22.506;2022-09-23T10:14:17;99455.72;;;17.86;51.25
62402;BME280;48440;51.224;22.506;2022-09-23T10:16:44;99452.44;;;17.46;48.73
62402;BME280;48440;51.224;22.506;2022-09-23T10:19:24;99453.22;;;16.61;49.74
62402;BME280;48440;51.224;22.506;2022-09-23T10:21:57;99467.34;;;15.82;51.49
62402;BME280;48440;51.224;22.506;2022-09-23T10:24:32;99462.78;;;15.18;53.22
62402;BME280;48440;51.224;22.506;2022-09-23T10:27:03;99464.63;;;14.68;53.77
62402;BME280;48440;51.224;22.506;2022-09-23T10:29:39;99458.13;;;14.29;54.73
62402;BME280;48440;51.224;22.506;2022-09-23T10:32:34;99462.22;;;14.11;55.22
62402;BME280;48440;51.224;22.506;2022-09-23T10:37:44;99459.72;;;14.35;54.73
62402;BME280;48440;51.224;22.506;2022-09-23T10:40:33;99463.03;;;14.42;55.50
62402;BME280;48440;51.224;22.506;2022-09-23T10:46:27;99453.50;;;14.29;52.99
62402;BME280;48440;51.224;22.506;2022-09-23T11:06:03;99435.38;;;14.74;51.45
62402;BME280;48440;51.224;22.506;2022-09-23T11:37:49;99410.19;;;14.87;50.80
62402;BME280;48440;51.224;22.506;2022-09-23T11:40:22;99410.16;;;14.92;49.51
62402;BME280;48440;51.224;22.506;2022-09-23T11:45:40;99401.94;;;15.02;50.35
62402;BME280;48440;51.224;22.506;2022-09-23T11:48:38;99398.91;;;15.04;50.94
62402;BME280;48440;51.224;22.506;2022-09-23T11:51:12;99402.50;;;14.94;49.02
62402;BME280;48440;51.224;22.506;2022-09-23T11:53:51;99393.03;;;14.71;48.33
62402;BME280;48440;51.224;22.506;2022-09-23T11:56:33;99397.19;;;14.58;48.48
62402;BME280;48440;51.224;22.506;2022-09-23T12:02:02;99400.50;;;14.45;49.31
62402;BME280;48440;51.224;22.506;2022-09-23T12:04:45;99393.94;;;14.31;49.61
62402;BME280;48440;51.224;22.506;2022-09-23T12:07:16;99396.94;;;14.30;50.31
62402;BME280;48440;51.224;22.506;2022-09-23T12:10:14;99397.00;;;14.19;49.22
62402;BME280;48440;51.224;22.506;2022-09-23T12:15:27;99392.63;;;14.03;49.19
62402;BME280;48440;51.224;22.506;2022-09-23T12:21:17;99396.22;;;13.99;51.49
62402;BME280;48440;51.224;22.506;2022-09-23T12:24:01;99391.31;;;14.01;50.92
62402;BME280;48440;51.224;22.506;2022-09-23T12:26:29;99397.31;;;13.98;47.67
62402;BME280;48440;51.224;22.506;2022-09-23T12:29:00;99402.75;;;13.92;47.54
62402;BME280;48440;51.224;22.506;2022-09-23T12:31:28;99388.03;;;13.93;48.55
62402;BME280;48440;51.224;22.506;2022-09-23T12:33:58;99391.03;;;13.92;48.93
62402;BME280;48440;51.224;22.506;2022-09-23T12:36:34;99384.47;;;13.93;48.11
62402;BME280;48440;51.224;22.506;2022-09-23T12:39:15;99391.31;;;13.90;47.71
62402;BME280;48440;51.224;22.506;2022-09-23T12:41:43;99380.94;;;13.87;44.07
62402;BME280;48440;51.224;22.506;2022-09-23T12:44:13;99383.94;;;13.86;41.79
62402;BME280;48440;51.224;22.506;2022-09-23T12:46:43;99381.47;;;13.84;40.08
62402;BME280;48440;51.224;22.506;2022-09-23T12:49:35;99379.56;;;13.85;41.54
62402;BME280;48440;51.224;22.506;2022-09-23T12:54:40;99371.13;;;13.86;42.05
62402;BME280;48440;51.224;22.506;2022-09-23T12:57:13;99372.47;;;13.84;43.04
62402;BME280;48440;51.224;22.506;2022-09-23T13:02:36;99362.38;;;13.84;44.94
62402;BME280;48440;51.224;22.506;2022-09-23T13:07:51;99360.22;;;13.81;46.07
62402;BME280;48440;51.224;22.506;2022-09-23T13:10:33;99359.38;;;13.81;46.70
62402;BME280;48440;51.224;22.506;2022-09-23T13:13:02;99360.75;;;13.83;46.80
62402;BME280;48440;51.224;22.506;2022-09-23T13:15:33;99350.66;;;13.79;47.04
62402;BME280;48440;51.224;22.506;2022-09-23T13:20:43;99353.69;;;13.72;47.07
62402;BME280;48440;51.224;22.506;2022-09-23T13:23:28;99353.69;;;13.72;46.80
62402;BME280;48440;51.224;22.506;2022-09-23T13:25:58;99347.69;;;13.70;46.81
62402;BME280;48440;51.224;22.506;2022-09-23T13:28:26;99350.41;;;13.70;47.27
62402;BME280;48440;51.224;22.506;2022-09-23T13:30:52;99348.78;;;13.69;47.51
62402;BME280;48440;51.224;22.506;2022-09-23T13:35:51;99335.69;;;13.71;48.19
62402;BME280;48440;51.224;22.506;2022-09-23T13:38:23;99335.41;;;13.73;48.68
62402;BME280;48440;51.224;22.506;2022-09-23T13:40:55;99341.97;;;13.77;48.70
62402;BME280;48440;51.224;22.506;2022-09-23T13:43:26;99334.88;;;13.76;48.36
62402;BME280;48440;51.224;22.506;2022-09-23T13:45:55;99343.06;;;13.76;47.42
62402;BME280;48440;51.224;22.506;2022-09-23T13:48:22;99346.59;;;13.76;47.37
62402;BME280;48440;51.224;22.506;2022-09-23T13:50:51;99340.06;;;13.72;48.07
62402;BME280;48440;51.224;22.506;2022-09-23T13:53:31;99341.16;;;13.71;47.98
62402;BME280;48440;51.224;22.506;2022-09-23T13:56:01;99336.50;;;13.72;48.75
62402;BME280;48440;51.224;22.506;2022-09-23T13:58:28;99334.59;;;13.72;49.01
62402;BME280;48440;51.224;22.506;2022-09-23T14:00:54;99331.06;;;13.72;48.96
62402;BME280;48440;51.224;22.506;2022-09-23T14:03:32;99320.41;;;13.70;49.00
62402;BME280;48440;51.224;22.506;2022-09-23T14:06:01;99320.97;;;13.72;49.39
62402;BME280;48440;51.224;22.506;2022-09-23T14:08:29;99320.97;;;13.67;49.60
62402;BME280;48440;51.224;22.506;2022-09-23T14:10:56;99318.78;;;13.64;49.43
62402;BME280;48440;51.224;22.506;2022-09-23T14:13:27;99318.50;;;13.61;49.64
62402;BME280;48440;51.224;22.506;2022-09-23T14:15:58;99316.88;;;13.59;48.57
62402;BME280;48440;51.224;22.506;2022-09-23T14:18:45;99306.78;;;13.55;48.71
62402;BME280;48440;51.224;22.506;2022-09-23T14:26:36;99312.25;;;13.50;48.12
62402;BME280;48440;51.224;22.506;2022-09-23T14:29:03;99309.22;;;13.51;48.52
62402;BME280;48440;51.224;22.506;2022-09-23T14:31:30;99314.41;;;13.53;48.78
62402;BME280;48440;51.224;22.506;2022-09-23T14:33:59;99311.19;;;13.51;48.98
62402;BME280;48440;51.224;22.506;2022-09-23T14:36:24;99320.13;;;13.51;49.54
62402;BME280;48440;51.224;22.506;2022-09-23T14:39:10;99310.88;;;13.52;48.56
62402;BME280;48440;51.224;22.506;2022-09-23T14:41:42;99318.53;;;13.50;48.33
62402;BME280;48440;51.224;22.506;2022-09-23T14:44:20;99318.81;;;13.49;48.91
62402;BME280;48440;51.224;22.506;2022-09-23T14:46:58;99316.63;;;13.46;49.36
62402;BME280;48440;51.224;22.506;2022-09-23T14:49:24;99314.44;;;13.48;49.18
62402;BME280;48440;51.224;22.506;2022-09-23T14:57:25;99310.06;;;13.37;49.42
62402;BME280;48440;51.224;22.506;2022-09-23T15:02:58;99314.44;;;13.33;49.44
62402;BME280;48440;51.224;22.506;2022-09-23T15:05:44;99313.59;;;13.32;49.94
62402;BME280;48440;51.224;22.506;2022-09-23T15:08:16;99310.59;;;13.34;49.91
62402;BME280;48440;51.224;22.506;2022-09-23T15:10:43;99309.25;;;13.36;49.63
62402;BME280;48440;51.224;22.506;2022-09-23T15:13:26;99306.78;;;13.35;48.50
62402;BME280;48440;51.224;22.506;2022-09-23T15:15:53;99303.25;;;13.34;48.02
62402;BME280;48440;51.224;22.506;2022-09-23T15:18:28;99315.25;;;13.33;48.21
62402;BME280;48440;51.224;22.506;2022-09-23T15:21:01;99316.59;;;13.31;48.35
62402;BME280;48440;51.224;22.506;2022-09-23T15:23:35;99306.53;;;13.31;48.83
62402;BME280;48440;51.224;22.506;2022-09-23T15:26:19;99314.69;;;13.31;49.47
62402;BME280;48440;51.224;22.506;2022-09-23T15:28:46;99310.06;;;13.27;49.79
62402;BME280;48440;51.224;22.506;2022-09-23T15:31:19;99303.78;;;13.26;49.70
62402;BME280;48440;51.224;22.506;2022-09-23T15:33:48;99311.44;;;13.24;49.59
62402;BME280;48440;51.224;22.506;2022-09-23T15:36:19;99301.91;;;13.21;50.37
62402;BME280;48440;51.224;22.506;2022-09-23T15:38:46;99305.97;;;13.19;50.42
62402;BME280;48440;51.224;22.506;2022-09-23T15:41:12;99300.00;;;13.17;50.66
62402;BME280;48440;51.224;22.506;2022-09-23T15:43:48;99298.84;;;13.13;50.85
62402;BME280;48440;51.224;22.506;2022-09-23T15:46:19;99307.84;;;13.08;51.57
62402;BME280;48440;51.224;22.506;2022-09-23T15:49:04;99305.66;;;13.05;50.68
62402;BME280;48440;51.224;22.506;2022-09-23T15:51:31;99312.19;;;13.04;50.62